Time,TemperatureF,DewpointF,PressureIn,WindDirection,WindDirectionDegrees,WindSpeedMPH,WindSpeedGustMPH,Humidity,HourlyPrecipIn,Conditions,Clouds,dailyrainin,SoftwareType,DateUTC
2013-02-14 00:05:00,25.0,21.0,29.82,NNE,24,0.0,-999.0,84,-99.99,,,0.00,weatherlink.com 1.10,2013-02-14 05:05:00,
2013-02-14 00:19:00,24.4,20.0,29.83,NNE,24,0.0,-999.0,84,-99.99,,,0.00,weatherlink.com 1.10,2013-02-14 05:19:00,
2013-02-14 00:34:00,24.2,20.0,29.84,NNE,24,0.0,-999.0,84,-99.99,,,0.00,weatherlink.com 1.10,2013-02-14 05:34:00,
2013-02-14 00:50:00,24.1,20.0,29.84,NNE,24,0.0,-999.0,85,-99.99,,,0.00,weatherlink.com 1.10,2013-02-14 05:50:00,
2013-02-14 01:05:00,24.2,21.0,29.84,NNE,24,0.0,-999.0,86,-99.99,,,0.00,weatherlink.com 1.10,2013-02-14 06:05:00,
2013-02-14 01:20:00,24.2,21.0,29.84,NNE,24,0.0,-999.0,86,-99.99,,,0.00,weatherlink.com 1.10,2013-02-14 06:20:00,
2013-02-14 01:35:00,24.4,21.0,29.85,NW,316,0.0,-999.0,86,-99.99,,,0.00,weatherlink.com 1.10,2013-02-14 06:35:00,
2013-02-14 01:50:00,24.7,21.0,29.85,NW,315,0.0,-999.0,86,-99.99,,,0.00,weatherlink.com 1.10,2013-02-14 06:50:00,
2013-02-14 02:04:00,25.3,22.0,29.85,NW,315,0.0,-999.0,86,-99.99,,,0.00,weatherlink.com 1.10,2013-02-14 07:04:00,
2013-02-14 02:20:00,25.4,22.0,29.85,NW,315,0.0,-999.0,86,-99.99,,,0.00,weatherlink.com 1.10,2013-02-14 07:20:00,
2013-02-14 02:35:00,25.7,22.0,29.84,NW,315,0.0,-999.0,86,-99.99,,,0.00,weatherlink.com 1.10,2013-02-14 07:35:00,
2013-02-14 02:50:00,25.6,22.0,29.85,NW,315,0.0,-999.0,85,-99.99,,,0.00,weatherlink.com 1.10,2013-02-14 07:50:00,
2013-02-14 03:05:00,25.4,22.0,29.85,NW,315,0.0,-999.0,85,-99.99,,,0.00,weatherlink.com 1.10,2013-02-14 08:05:00,
2013-02-14 03:20:00,25.6,22.0,29.85,NW,315,0.0,-999.0,85,-99.99,,,0.00,weatherlink.com 1.10,2013-02-14 08:20:00,
2013-02-14 03:35:00,25.8,22.0,29.85,NW,315,0.0,-999.0,85,-99.99,,,0.00,weatherlink.com 1.10,2013-02-14 08:35:00,
2013-02-14 03:50:00,26.9,23.0,29.86,WSW,241,0.0,-999.0,85,-99.99,,,0.00,weatherlink.com 1.10,2013-02-14 08:50:00,
2013-02-14 04:05:00,27.3,23.0,29.86,WSW,245,0.0,-999.0,84,-99.99,,,0.00,weatherlink.com 1.10,2013-02-14 09:05:00,
2013-02-14 04:21:00,27.3,23.0,29.86,WSW,242,0.0,-999.0,84,-99.99,,,0.00,weatherlink.com 1.10,2013-02-14 09:21:00,
2013-02-14 04:35:00,27.6,23.0,29.86,West,261,0.0,-999.0,84,-99.99,,,0.00,weatherlink.com 1.10,2013-02-14 09:35:00,
2013-02-14 04:49:00,27.9,23.0,29.87,West,259,0.0,-999.0,83,-99.99,,,0.00,weatherlink.com 1.10,2013-02-14 09:49:00,
2013-02-14 05:05:00,28.1,24.0,29.87,WSW,248,0.0,-999.0,83,-99.99,,,0.00,weatherlink.com 1.10,2013-02-14 10:05:00,
2013-02-14 05:20:00,28.4,24.0,29.87,SSW,209,0.0,-999.0,83,-99.99,,,0.00,weatherlink.com 1.10,2013-02-14 10:20:00,
2013-02-14 05:34:00,28.5,24.0,29.87,SSW,209,0.0,-999.0,83,-99.99,,,0.00,weatherlink.com 1.10,2013-02-14 10:34:00,
2013-02-14 05:50:00,28.7,24.0,29.87,SSW,209,0.0,-999.0,83,-99.99,,,0.00,weatherlink.com 1.10,2013-02-14 10:50:00,
2013-02-14 06:05:00,29.0,25.0,29.88,SW,229,2.0,-999.0,83,-99.99,,,0.00,weatherlink.com 1.10,2013-02-14 11:05:00,
2013-02-14 06:20:00,29.0,25.0,29.88,WSW,258,0.0,-999.0,83,-99.99,,,0.00,weatherlink.com 1.10,2013-02-14 11:20:00,
2013-02-14 06:35:00,29.0,25.0,29.89,SW,234,0.0,-999.0,83,-99.99,,,0.00,weatherlink.com 1.10,2013-02-14 11:35:00,
2013-02-14 06:50:00,29.0,24.0,29.89,WSW,247,1.0,-999.0,82,-99.99,,,0.00,weatherlink.com 1.10,2013-02-14 11:50:00,
2013-02-14 07:05:00,28.8,24.0,29.89,West,266,0.0,-999.0,82,-99.99,,,0.00,weatherlink.com 1.10,2013-02-14 12:05:00,
2013-02-14 07:19:00,28.8,24.0,29.89,South,187,0.0,-999.0,81,-99.99,,,0.00,weatherlink.com 1.10,2013-02-14 12:19:00,
2013-02-14 07:35:00,28.7,23.0,29.90,South,182,2.0,-999.0,80,-99.99,,,0.00,weatherlink.com 1.10,2013-02-14 12:35:00,
2013-02-14 07:50:00,28.5,23.0,29.90,South,182,1.0,-999.0,80,-99.99,,,0.00,weatherlink.com 1.10,2013-02-14 12:50:00,
2013-02-14 08:05:00,28.5,23.0,29.91,South,179,3.0,-999.0,79,-99.99,,,0.00,weatherlink.com 1.10,2013-02-14 13:05:00,
2013-02-14 08:20:00,28.7,23.0,29.91,South,188,0.0,-999.0,78,-99.99,,,0.00,weatherlink.com 1.10,2013-02-14 13:20:00,
2013-02-14 08:35:00,28.7,22.0,29.91,South,175,1.0,-999.0,77,-99.99,,,0.00,weatherlink.com 1.10,2013-02-14 13:35:00,
2013-02-14 08:50:00,28.7,22.0,29.91,South,183,0.0,-999.0,76,-99.99,,,0.00,weatherlink.com 1.10,2013-02-14 13:50:00,
2013-02-14 09:05:00,29.1,22.0,29.91,South,190,0.0,-999.0,74,-99.99,,,0.00,weatherlink.com 1.10,2013-02-14 14:05:00,
2013-02-14 09:20:00,29.7,22.0,29.90,South,188,3.0,-999.0,73,-99.99,,,0.00,weatherlink.com 1.10,2013-02-14 14:20:00,
2013-02-14 09:35:00,30.3,22.0,29.90,South,184,3.0,-999.0,71,-99.99,,,0.00,weatherlink.com 1.10,2013-02-14 14:35:00,
2013-02-14 09:50:00,31.3,22.0,29.90,South,191,3.0,-999.0,68,-99.99,,,0.00,weatherlink.com 1.10,2013-02-14 14:50:00,
2013-02-14 10:20:00,33.1,22.0,29.88,South,186,3.0,-999.0,64,-99.99,,,0.00,weatherlink.com 1.10,2013-02-14 15:20:00,
2013-02-14 10:35:00,34.3,22.0,29.88,WSW,237,1.0,-999.0,61,-99.99,,,0.00,weatherlink.com 1.10,2013-02-14 15:35:00,
2013-02-14 10:50:00,35.6,22.0,29.88,South,187,0.0,-999.0,58,-99.99,,,0.00,weatherlink.com 1.10,2013-02-14 15:50:00,
2013-02-14 11:05:00,36.8,23.0,29.87,SSW,198,0.0,-999.0,57,-99.99,,,0.00,weatherlink.com 1.10,2013-02-14 16:05:00,
2013-02-14 11:20:00,37.5,23.0,29.87,SW,227,0.0,-999.0,56,-99.99,,,0.00,weatherlink.com 1.10,2013-02-14 16:20:00,
2013-02-14 11:35:00,38.3,24.0,29.86,South,180,0.0,-999.0,56,-99.99,,,0.00,weatherlink.com 1.10,2013-02-14 16:35:00,
2013-02-14 11:50:00,38.6,24.0,29.86,WSW,248,1.0,-999.0,56,-99.99,,,0.00,weatherlink.com 1.10,2013-02-14 16:50:00,
2013-02-14 12:06:00,38.6,25.0,29.86,West,262,0.0,-999.0,59,-99.99,,,0.00,weatherlink.com 1.10,2013-02-14 17:06:00,
2013-02-14 12:20:00,39.1,26.0,29.85,SSW,206,0.0,-999.0,59,-99.99,,,0.00,weatherlink.com 1.10,2013-02-14 17:20:00,
2013-02-14 12:35:00,38.8,25.0,29.85,West,265,6.0,-999.0,59,-99.99,,,0.00,weatherlink.com 1.10,2013-02-14 17:35:00,
2013-02-14 12:50:00,38.3,25.0,29.85,SW,232,3.0,-999.0,60,-99.99,,,0.00,weatherlink.com 1.10,2013-02-14 17:50:00,
2013-02-14 13:05:00,38.0,25.0,29.84,WSW,251,2.0,-999.0,61,-99.99,,,0.00,weatherlink.com 1.10,2013-02-14 18:05:00,
2013-02-14 13:21:00,37.6,26.0,29.84,SW,236,1.0,-999.0,63,-99.99,,,0.00,weatherlink.com 1.10,2013-02-14 18:21:00,
2013-02-14 13:35:00,37.8,27.0,29.83,South,189,3.0,-999.0,64,-99.99,,,0.00,weatherlink.com 1.10,2013-02-14 18:35:00,
2013-02-14 13:50:00,38.3,27.0,29.83,SW,234,1.0,-999.0,64,-99.99,,,0.00,weatherlink.com 1.10,2013-02-14 18:50:00,
2013-02-14 14:05:00,38.2,27.0,29.82,SW,236,4.0,-999.0,64,-99.99,,,0.00,weatherlink.com 1.10,2013-02-14 19:05:00,
2013-02-14 14:36:00,38.3,27.0,29.82,South,186,2.0,-999.0,65,-99.99,,,0.00,weatherlink.com 1.10,2013-02-14 19:36:00,
2013-02-14 14:50:00,38.5,28.0,29.82,WSW,246,0.0,-999.0,66,-99.99,,,0.00,weatherlink.com 1.10,2013-02-14 19:50:00,
2013-02-14 15:05:00,38.5,28.0,29.81,South,183,0.0,-999.0,66,-99.99,,,0.00,weatherlink.com 1.10,2013-02-14 20:05:00,
2013-02-14 15:20:00,38.8,29.0,29.81,South,186,0.0,-999.0,67,-99.99,,,0.00,weatherlink.com 1.10,2013-02-14 20:20:00,
2013-02-14 15:35:00,38.8,29.0,29.81,SW,229,0.0,-999.0,68,-99.99,,,0.00,weatherlink.com 1.10,2013-02-14 20:35:00,
2013-02-14 15:51:00,38.3,30.0,29.81,SSW,198,0.0,-999.0,71,-99.99,,,0.00,weatherlink.com 1.10,2013-02-14 20:51:00,
2013-02-14 16:05:00,38.0,31.0,29.81,WSW,250,1.0,-999.0,75,-99.99,,,0.00,weatherlink.com 1.10,2013-02-14 21:05:00,
2013-02-14 16:20:00,37.3,31.0,29.81,South,173,2.0,-999.0,79,-99.99,,,0.00,weatherlink.com 1.10,2013-02-14 21:20:00,
2013-02-14 16:35:00,36.6,32.0,29.80,SW,224,0.0,-999.0,82,-99.99,,,0.00,weatherlink.com 1.10,2013-02-14 21:35:00,
2013-02-14 16:50:00,36.3,32.0,29.80,SW,225,0.0,-999.0,84,-99.99,,,0.01,weatherlink.com 1.10,2013-02-14 21:50:00,
2013-02-14 17:05:00,36.2,32.0,29.80,South,185,3.0,-999.0,86,-99.99,,,0.01,weatherlink.com 1.10,2013-02-14 22:05:00,
2013-02-14 17:20:00,36.0,33.0,29.80,SSW,200,0.0,-999.0,87,-99.99,,,0.02,weatherlink.com 1.10,2013-02-14 22:20:00,
2013-02-14 17:36:00,36.0,33.0,29.80,South,187,0.0,-999.0,88,-99.99,,,0.02,weatherlink.com 1.10,2013-02-14 22:36:00,
2013-02-14 17:50:00,35.9,33.0,29.80,SW,231,0.0,-999.0,88,-99.99,,,0.02,weatherlink.com 1.10,2013-02-14 22:50:00,
2013-02-14 18:05:00,35.9,33.0,29.80,SW,219,2.0,-999.0,88,-99.99,,,0.02,weatherlink.com 1.10,2013-02-14 23:05:00,
2013-02-14 18:20:00,35.9,33.0,29.80,South,178,1.0,-999.0,89,-99.99,,,0.02,weatherlink.com 1.10,2013-02-14 23:20:00,
2013-02-14 18:36:00,36.0,33.0,29.80,South,178,2.0,-999.0,88,-99.99,,,0.02,weatherlink.com 1.10,2013-02-14 23:36:00,
2013-02-14 18:50:00,36.2,33.0,29.80,South,185,0.0,-999.0,88,-99.99,,,0.02,weatherlink.com 1.10,2013-02-14 23:50:00,
2013-02-14 19:05:00,36.2,33.0,29.80,South,185,3.0,-999.0,88,-99.99,,,0.02,weatherlink.com 1.10,2013-02-15 00:05:00,
2013-02-14 19:21:00,36.3,33.0,29.80,SSW,207,1.0,-999.0,87,-99.99,,,0.03,weatherlink.com 1.10,2013-02-15 00:21:00,
2013-02-14 19:36:00,36.2,33.0,29.80,WSW,243,0.0,-999.0,88,-99.99,,,0.04,weatherlink.com 1.10,2013-02-15 00:36:00,
2013-02-14 19:50:00,35.8,33.0,29.80,SW,228,0.0,-999.0,88,-99.99,,,0.05,weatherlink.com 1.10,2013-02-15 00:50:00,
2013-02-14 20:06:00,35.0,32.0,29.81,WSW,240,0.0,-999.0,89,-99.99,,,0.07,weatherlink.com 1.10,2013-02-15 01:06:00,
2013-02-14 20:21:00,34.7,32.0,29.80,SW,229,1.0,-999.0,90,-99.99,,,0.08,weatherlink.com 1.10,2013-02-15 01:21:00,
2013-02-14 20:36:00,34.9,33.0,29.80,SW,216,0.0,-999.0,91,-99.99,,,0.09,weatherlink.com 1.10,2013-02-15 01:36:00,
2013-02-14 20:51:00,34.6,32.0,29.80,West,271,0.0,-999.0,91,-99.99,,,0.10,weatherlink.com 1.10,2013-02-15 01:51:00,
2013-02-14 21:06:00,34.6,32.0,29.80,SSW,205,0.0,-999.0,91,-99.99,,,0.11,weatherlink.com 1.10,2013-02-15 02:06:00,
2013-02-14 21:20:00,34.9,33.0,29.79,WSW,242,4.0,-999.0,92,-99.99,,,0.11,weatherlink.com 1.10,2013-02-15 02:20:00,
2013-02-14 21:35:00,35.3,33.0,29.79,South,186,0.0,-999.0,92,-99.99,,,0.11,weatherlink.com 1.10,2013-02-15 02:35:00,
2013-02-14 21:50:00,35.5,33.0,29.78,SSW,202,1.0,-999.0,92,-99.99,,,0.11,weatherlink.com 1.10,2013-02-15 02:50:00,
2013-02-14 22:05:00,35.8,34.0,29.77,SW,225,2.0,-999.0,92,-99.99,,,0.12,weatherlink.com 1.10,2013-02-15 03:05:00,
2013-02-14 22:20:00,36.3,34.0,29.77,SW,217,4.0,-999.0,91,-99.99,,,0.12,weatherlink.com 1.10,2013-02-15 03:20:00,
2013-02-14 22:36:00,36.6,34.0,29.77,WSW,244,8.0,-999.0,91,-99.99,,,0.12,weatherlink.com 1.10,2013-02-15 03:36:00,
2013-02-14 22:51:00,36.9,34.0,29.77,WSW,248,3.0,-999.0,90,-99.99,,,0.12,weatherlink.com 1.10,2013-02-15 03:51:00,
2013-02-14 23:05:00,37.0,34.0,29.76,WSW,242,3.0,-999.0,90,-99.99,,,0.12,weatherlink.com 1.10,2013-02-15 04:05:00,
2013-02-14 23:20:00,37.3,34.0,29.76,SW,236,5.0,-999.0,88,-99.99,,,0.12,weatherlink.com 1.10,2013-02-15 04:20:00,
2013-02-14 23:35:00,37.5,33.0,29.76,SW,218,6.0,-999.0,85,-99.99,,,0.12,weatherlink.com 1.10,2013-02-15 04:35:00,
2013-02-14 23:51:00,37.3,32.0,29.77,SW,233,3.0,-999.0,82,-99.99,,,0.12,weatherlink.com 1.10,2013-02-15 04:51:00,